createdAt,value
2023-03-17T00:04:59.190Z,4.90
2023-03-17T00:10:04.433Z,6.43
2023-03-17T00:15:14.136Z,4.47
2023-03-17T00:20:28.243Z,5.67
2023-03-17T00:25:34.841Z,5.93
2023-03-17T00:30:42.897Z,5.65
2023-03-17T00:35:48.500Z,5.97
2023-03-17T00:40:54.402Z,9.20
2023-03-17T00:46:02.107Z,5.05
2023-03-17T00:51:07.622Z,7.03
2023-03-17T00:56:17.701Z,6.93
2023-03-17T01:01:25.360Z,5.25
2023-03-17T01:06:30.400Z,8.32
2023-03-17T01:11:36.780Z,4.55
2023-03-17T01:16:45.028Z,7.32
2023-03-17T01:21:50.540Z,6.03
2023-03-17T01:26:55.656Z,6.25
2023-03-17T01:32:03.331Z,4.28
2023-03-17T01:37:08.596Z,4.60
2023-03-17T01:42:13.912Z,5.93
2023-03-17T01:47:22.344Z,5.82
2023-03-17T01:52:27.869Z,6.22
2023-03-17T01:57:37.343Z,5.88
2023-03-17T02:02:46.549Z,8.43
2023-03-17T02:07:54.267Z,5.57
2023-03-17T02:13:05.701Z,7.53
2023-03-17T02:18:14.665Z,6.45
2023-03-17T02:23:25.894Z,5.75
2023-03-17T02:28:33.581Z,7.70
2023-03-17T02:33:38.638Z,5.93
2023-03-17T02:38:46.576Z,3.83
2023-03-17T02:43:52.318Z,6.63
2023-03-17T02:48:57.966Z,14.57
2023-03-17T02:54:05.895Z,4.70
2023-03-17T02:59:11.635Z,6.82
2023-03-17T03:04:16.687Z,10.02
2023-03-17T03:09:24.641Z,9.50
2023-03-17T03:14:29.785Z,6.80
2023-03-17T03:19:35.046Z,6.28
2023-03-17T03:24:42.780Z,6.55
2023-03-17T03:29:47.919Z,7.13
2023-03-17T03:34:54.450Z,7.18
2023-03-17T03:40:02.377Z,5.70
2023-03-17T03:45:08.290Z,5.97
2023-03-17T03:50:14.897Z,5.90
2023-03-17T03:55:22.941Z,6.53
2023-03-17T04:00:29.004Z,5.35
2023-03-17T04:05:34.425Z,6.13
2023-03-17T04:10:42.107Z,7.15
2023-03-17T04:15:47.272Z,7.13
2023-03-17T04:20:52.291Z,9.55
2023-03-17T04:26:00.052Z,4.72
2023-03-17T04:31:05.269Z,5.55
2023-03-17T04:36:13.225Z,5.10
2023-03-17T04:41:21.413Z,5.85
2023-03-17T04:46:26.641Z,7.00
2023-03-17T04:51:32.002Z,6.13
2023-03-17T04:56:39.768Z,5.80
2023-03-17T05:01:44.792Z,8.07
2023-03-17T05:06:49.874Z,24.23
2023-03-17T05:11:57.811Z,13.38
2023-03-17T05:17:02.930Z,11.75
2023-03-17T05:22:08.285Z,12.35
2023-03-17T05:27:16.166Z,18.80
2023-03-17T05:32:21.385Z,11.07
2023-03-17T05:37:26.435Z,8.73
2023-03-17T05:42:34.121Z,7.85
2023-03-17T05:47:39.485Z,8.23
2023-03-17T05:52:44.597Z,14.05
2023-03-17T05:57:52.566Z,6.30
2023-03-17T06:02:57.742Z,10.13
2023-03-17T06:08:02.879Z,8.02
2023-03-17T06:13:11.396Z,6.75
2023-03-17T06:18:16.585Z,6.97
2023-03-17T06:23:23.845Z,4.47
2023-03-17T06:28:31.484Z,6.90
2023-03-17T06:33:36.649Z,6.25
2023-03-17T06:38:41.853Z,8.40
2023-03-17T06:43:49.561Z,4.88
2023-03-17T06:48:56.381Z,6.45
2023-03-17T06:54:01.747Z,7.22
2023-03-17T06:59:10.677Z,5.57
2023-03-17T07:04:16.069Z,7.25
2023-03-17T07:09:22.605Z,9.20
2023-03-17T07:14:30.573Z,6.05
2023-03-17T07:19:35.845Z,9.30
2023-03-17T07:24:44.549Z,8.73
2023-03-17T07:29:52.346Z,8.43
2023-03-17T07:34:57.765Z,5.95
2023-03-17T07:40:02.791Z,6.03
2023-03-17T07:45:11.634Z,8.23
2023-03-17T07:50:17.047Z,10.07
2023-03-17T07:55:22.095Z,8.95
2023-03-17T08:00:31.050Z,11.88
2023-03-17T08:05:36.424Z,9.60
2023-03-17T08:10:41.796Z,8.80
2023-03-17T08:15:51.182Z,8.77
2023-03-17T08:20:56.225Z,7.33
2023-03-17T08:26:01.991Z,9.68
2023-03-17T08:31:16.111Z,6.55
2023-03-17T08:36:22.186Z,6.85
2023-03-17T08:41:28.592Z,6.07
2023-03-17T08:46:36.265Z,6.40
2023-03-17T08:51:42.067Z,7.25
2023-03-17T08:56:47.359Z,5.70
2023-03-17T09:01:55.983Z,6.55
2023-03-17T09:07:04.006Z,5.38
2023-03-17T09:12:14.351Z,7.80
2023-03-17T09:22:27.372Z,8.13
2023-03-17T09:27:32.675Z,9.57
2023-03-17T09:32:40.379Z,26.98
2023-03-17T09:37:45.892Z,5.35
2023-03-17T09:42:56.943Z,4.95
2023-03-17T09:48:20.365Z,4.70
2023-03-17T09:53:34.246Z,6.03
2023-03-17T09:58:40.530Z,6.20
2023-03-17T10:03:48.305Z,4.38
2023-03-17T10:08:58.193Z,5.05
2023-03-17T10:19:19.597Z,3.75
2023-03-17T10:24:24.803Z,4.57
2023-03-17T10:29:31.711Z,4.95
2023-03-17T10:34:40.243Z,3.60
2023-03-17T10:39:49.362Z,4.38
2023-03-17T10:44:57.662Z,3.73
2023-03-17T10:50:07.837Z,2.20
2023-03-17T10:55:18.011Z,8.05
2023-03-17T11:00:25.059Z,3.33
2023-03-17T11:05:33.301Z,3.40
2023-03-17T11:10:40.754Z,3.92
2023-03-17T11:15:49.830Z,2.50
2023-03-17T11:21:00.361Z,2.53
2023-03-17T11:26:14.909Z,3.45
2023-03-17T11:31:23.030Z,3.38
2023-03-17T11:36:43.608Z,5.30
2023-03-17T11:41:55.907Z,3.15
2023-03-17T11:47:02.654Z,2.13
2023-03-17T11:52:15.488Z,2.10
2023-03-17T11:57:24.955Z,2.00
2023-03-17T12:02:33.893Z,3.40
2023-03-17T12:07:45.503Z,2.10
2023-03-17T12:12:54.428Z,3.13
2023-03-17T12:18:01.148Z,3.50
2023-03-17T12:23:12.546Z,3.03
2023-03-17T12:28:19.402Z,3.28
2023-03-17T12:33:29.195Z,2.83
2023-03-17T12:38:39.323Z,2.95
2023-03-17T12:43:52.002Z,2.00
2023-03-17T12:49:18.944Z,3.00
2023-03-17T12:54:30.120Z,7.35
2023-03-17T12:59:35.627Z,5.18
2023-03-17T13:04:41.135Z,2.95
2023-03-17T13:09:50.931Z,3.58
2023-03-17T13:14:56.234Z,3.08
2023-03-17T13:20:14.644Z,4.25
2023-03-17T13:25:33.965Z,3.40
2023-03-17T13:30:57.628Z,2.50
2023-03-17T13:36:30.453Z,3.60
2023-03-17T13:41:45.196Z,2.88
2023-03-17T13:46:51.810Z,20.20
2023-03-17T13:52:00.222Z,5.80
2023-03-17T13:57:32.662Z,2.28
2023-03-17T14:02:41.252Z,2.22
2023-03-17T14:07:49.758Z,5.25
2023-03-17T14:13:02.352Z,4.25
2023-03-17T14:18:11.852Z,4.20
2023-03-17T14:23:22.096Z,6.70
2023-03-17T14:28:31.068Z,4.22
2023-03-17T14:33:39.406Z,10.30
2023-03-17T14:38:50.824Z,4.03
2023-03-17T14:44:03.633Z,3.63
2023-03-17T14:49:19.974Z,6.05
2023-03-17T14:54:27.193Z,2.95
2023-03-17T14:59:37.500Z,2.70
2023-03-17T15:04:53.215Z,2.65
2023-03-17T15:10:22.993Z,3.15
2023-03-17T15:15:33.349Z,2.85
2023-03-17T15:20:38.630Z,4.22
2023-03-17T15:25:46.820Z,4.05
2023-03-17T15:30:56.057Z,2.20
2023-03-17T15:36:01.852Z,7.38
2023-03-17T15:41:06.979Z,3.35
2023-03-17T15:46:25.301Z,3.47
2023-03-17T15:51:30.697Z,4.25
2023-03-17T15:56:38.695Z,3.60
2023-03-17T16:01:47.059Z,7.90
2023-03-17T16:06:52.331Z,8.27
2023-03-17T16:11:57.353Z,8.02
2023-03-17T16:17:07.287Z,12.00
2023-03-17T16:22:36.245Z,30.50
2023-03-17T16:27:41.260Z,16.05
2023-03-17T16:32:49.410Z,5.20
2023-03-17T16:37:55.329Z,6.82
2023-03-17T16:43:00.424Z,14.05
2023-03-17T16:48:08.547Z,8.88
2023-03-17T16:53:14.087Z,11.55
2023-03-17T16:58:21.711Z,11.50
2023-03-17T17:03:29.381Z,33.70
2023-03-17T17:08:34.473Z,26.85
2023-03-17T17:13:39.721Z,25.15
2023-03-17T17:18:47.698Z,22.27
2023-03-17T17:23:53.352Z,16.83
2023-03-17T17:28:58.454Z,10.50
2023-03-17T17:34:06.117Z,39.67
2023-03-17T17:39:13.020Z,46.65
2023-03-17T17:44:18.053Z,48.30
2023-03-17T17:49:25.648Z,115.18
2023-03-17T17:54:30.661Z,61.88
2023-03-17T17:59:36.089Z,51.65
2023-03-17T18:04:43.805Z,196.60
2023-03-17T18:09:48.943Z,140.70
2023-03-17T18:14:53.909Z,86.63
2023-03-17T18:20:01.557Z,33.72
2023-03-17T18:25:08.668Z,20.25
2023-03-17T18:30:17.396Z,36.53
2023-03-17T18:35:27.251Z,44.95
2023-03-17T18:40:32.755Z,42.63
2023-03-17T18:45:37.899Z,90.35
2023-03-17T18:50:45.686Z,67.70
2023-03-17T18:55:50.654Z,66.32
2023-03-17T19:00:56.063Z,74.63
2023-03-17T19:06:10.660Z,73.03
2023-03-17T19:11:18.472Z,78.45
2023-03-17T19:16:29.076Z,55.35
2023-03-17T19:21:36.807Z,40.15
2023-03-17T19:26:41.873Z,41.92
2023-03-17T19:31:48.554Z,41.67
2023-03-17T19:36:56.569Z,37.15
2023-03-17T19:42:01.604Z,32.40
2023-03-17T19:47:08.460Z,31.95
2023-03-17T19:52:16.455Z,23.30
2023-03-17T19:57:22.223Z,19.80
2023-03-17T20:02:27.264Z,16.92
2023-03-17T20:07:34.899Z,16.13
2023-03-17T20:12:40.615Z,25.15
2023-03-17T20:17:45.842Z,111.68
2023-03-17T20:22:53.616Z,30.77
2023-03-17T20:27:58.667Z,30.60
2023-03-17T20:33:03.681Z,55.75
2023-03-17T20:38:11.421Z,103.88
2023-03-17T20:43:16.548Z,126.30
2023-03-17T20:48:21.925Z,112.38
2023-03-17T20:53:29.926Z,105.75
2023-03-17T20:58:35.040Z,89.75
2023-03-17T21:03:40.078Z,105.70
2023-03-17T21:08:47.791Z,244.20
2023-03-17T21:13:53.025Z,429.27
2023-03-17T21:18:58.275Z,328.80
2023-03-17T21:24:07.221Z,408.40
2023-03-17T21:29:12.247Z,267.90
2023-03-17T21:34:17.278Z,212.82
2023-03-17T21:39:25.339Z,114.80
2023-03-17T21:44:32.747Z,113.53
2023-03-17T21:49:37.762Z,88.10
2023-03-17T21:54:45.401Z,79.03
2023-03-17T21:59:50.533Z,64.75
2023-03-17T22:04:55.577Z,66.35
2023-03-17T22:10:07.380Z,60.67
2023-03-17T22:15:14.279Z,53.33
2023-03-17T22:20:19.931Z,54.88
2023-03-17T22:25:27.540Z,54.65
2023-03-17T22:30:32.861Z,74.50
2023-03-17T22:35:38.777Z,60.60
2023-03-17T22:40:46.539Z,84.28
2023-03-17T22:45:51.791Z,57.15
2023-03-17T22:50:56.889Z,54.80
2023-03-17T22:56:04.694Z,52.72
2023-03-17T23:01:10.705Z,57.90
2023-03-17T23:06:16.323Z,53.35
2023-03-17T23:11:25.670Z,52.22
2023-03-17T23:16:31.376Z,40.30
2023-03-17T23:21:37.967Z,39.58
2023-03-17T23:26:56.782Z,38.15
2023-03-17T23:32:02.046Z,32.67
2023-03-17T23:37:07.197Z,31.40
2023-03-17T23:42:15.247Z,28.08
2023-03-17T23:47:20.995Z,20.95
2023-03-17T23:52:26.028Z,22.30
2023-03-17T23:57:33.612Z,26.95
